createdAt,value
2024-03-02T00:01:47.820Z,71.55
2024-03-02T00:04:15.987Z,70.83
2024-03-02T00:06:43.883Z,71.29
2024-03-02T00:09:13.812Z,71.18
2024-03-02T00:11:41.938Z,71.04
2024-03-02T00:14:10.354Z,71.01
2024-03-02T00:16:38.368Z,71.26
2024-03-02T00:19:09.300Z,71.50
2024-03-02T00:21:37.512Z,71.57
2024-03-02T00:24:16.041Z,71.60
2024-03-02T00:26:46.598Z,71.77
2024-03-02T00:29:17.927Z,71.77
2024-03-02T00:31:45.869Z,72.58
2024-03-02T00:34:17.412Z,72.10
2024-03-02T00:36:45.524Z,72.54
2024-03-02T00:39:15.481Z,71.93
2024-03-02T00:41:44.589Z,72.70
2024-03-02T00:44:14.690Z,72.59
2024-03-02T00:46:45.028Z,72.31
2024-03-02T00:49:21.929Z,72.42
2024-03-02T00:51:51.902Z,72.84
2024-03-02T00:54:22.654Z,73.33
2024-03-02T00:56:50.689Z,73.40
2024-03-02T00:59:18.791Z,72.68
2024-03-02T01:01:47.340Z,73.55
2024-03-02T01:04:16.612Z,73.67
2024-03-02T01:06:44.762Z,74.22
2024-03-02T01:09:14.090Z,73.26
2024-03-02T01:11:42.399Z,73.73
2024-03-02T01:14:10.457Z,73.18
2024-03-02T01:16:38.500Z,73.26
2024-03-02T01:19:06.634Z,74.54
2024-03-02T01:21:36.269Z,74.32
2024-03-02T01:24:04.540Z,74.13
2024-03-02T01:26:33.585Z,74.91
2024-03-02T01:29:01.462Z,74.05
2024-03-02T01:31:29.428Z,74.75
2024-03-02T01:33:57.503Z,74.17
2024-03-02T01:36:25.794Z,73.97
2024-03-02T01:38:55.054Z,74.12
2024-03-02T01:41:23.334Z,73.99
2024-03-02T01:43:51.210Z,73.81
2024-03-02T01:46:19.150Z,74.43
2024-03-02T01:48:47.068Z,74.27
2024-03-02T01:51:15.088Z,73.61
2024-03-02T01:53:43.026Z,73.15
2024-03-02T01:56:12.248Z,73.47
2024-03-02T01:58:40.262Z,72.93
2024-03-02T02:01:08.464Z,73.26
2024-03-02T02:03:36.520Z,74.07
2024-03-02T02:06:04.894Z,73.92
2024-03-02T02:08:33.022Z,73.71
2024-03-02T02:11:01.056Z,74.24
2024-03-02T02:13:30.412Z,74.05
2024-03-02T02:16:06.767Z,74.54
2024-03-02T02:18:34.943Z,75.36
2024-03-02T02:21:02.896Z,74.47
2024-03-02T02:23:32.209Z,75.20
2024-03-02T02:26:00.090Z,74.28
2024-03-02T02:28:27.994Z,74.34
2024-03-02T02:30:58.063Z,74.44
2024-03-02T02:33:26.187Z,74.77
2024-03-02T02:35:54.284Z,73.88
2024-03-02T02:38:22.494Z,74.30
2024-03-02T02:40:51.711Z,74.00
2024-03-02T02:43:20.173Z,74.50
2024-03-02T02:45:48.121Z,75.15
2024-03-02T02:48:16.155Z,74.66
2024-03-02T02:50:44.340Z,75.26
2024-03-02T02:53:12.273Z,74.96
2024-03-02T02:55:41.876Z,75.20
2024-03-02T02:58:11.214Z,74.84
2024-03-02T03:00:39.273Z,74.88
2024-03-02T03:03:07.215Z,74.71
2024-03-02T03:05:35.077Z,74.04
2024-03-02T03:08:03.886Z,74.70
2024-03-02T03:10:31.900Z,74.27
2024-03-02T03:12:59.945Z,74.37
2024-03-02T03:15:29.550Z,74.60
2024-03-02T03:17:57.411Z,73.74
2024-03-02T03:20:26.000Z,72.68
2024-03-02T03:22:53.969Z,72.90
2024-03-02T03:25:21.848Z,73.52
2024-03-02T03:27:49.782Z,72.92
2024-03-02T03:30:17.798Z,72.65
2024-03-02T03:32:49.199Z,72.57
2024-03-02T03:35:17.189Z,72.46
2024-03-02T03:37:45.607Z,72.43
2024-03-02T03:40:15.469Z,72.36
2024-03-02T03:42:43.537Z,72.40
2024-03-02T03:45:12.189Z,73.28
2024-03-02T03:47:40.083Z,73.28
2024-03-02T03:50:10.288Z,73.47
2024-03-02T03:52:38.352Z,73.60
2024-03-02T03:55:07.539Z,73.93
2024-03-02T03:57:36.104Z,72.69
2024-03-02T04:00:05.250Z,72.18
2024-03-02T04:02:40.309Z,72.63
2024-03-02T04:05:12.132Z,72.15
2024-03-02T04:07:41.743Z,71.73
2024-03-02T04:10:10.750Z,71.65
2024-03-02T04:12:39.355Z,71.57
2024-03-02T04:15:07.987Z,72.12
2024-03-02T04:17:36.938Z,71.95
2024-03-02T04:20:06.684Z,71.99
2024-03-02T04:22:36.920Z,71.66
2024-03-02T04:25:08.428Z,71.68
2024-03-02T04:27:36.542Z,72.05
2024-03-02T04:30:06.938Z,71.97
2024-03-02T04:32:35.181Z,71.66
2024-03-02T04:35:03.159Z,72.15
2024-03-02T04:37:31.892Z,70.92
2024-03-02T04:40:01.260Z,71.53
2024-03-02T04:42:29.298Z,71.32
2024-03-02T04:44:57.234Z,71.39
2024-03-02T04:47:25.487Z,71.72
2024-03-02T04:49:53.487Z,72.27
2024-03-02T04:52:21.464Z,71.80
2024-03-02T04:55:03.373Z,71.44
2024-03-02T04:57:32.702Z,72.12
2024-03-02T05:00:01.402Z,71.89
2024-03-02T05:02:29.326Z,71.97
2024-03-02T05:04:57.225Z,72.62
2024-03-02T05:07:25.212Z,73.37
2024-03-02T05:09:53.151Z,73.46
2024-03-02T05:12:48.523Z,73.56
2024-03-02T05:15:20.962Z,74.87
2024-03-02T05:17:48.956Z,73.86
2024-03-02T05:20:18.101Z,73.94
2024-03-02T05:22:46.119Z,74.53
2024-03-02T05:25:14.123Z,75.16
2024-03-02T05:27:42.337Z,75.31
2024-03-02T05:30:11.859Z,73.63
2024-03-02T05:32:41.167Z,73.55
2024-03-02T05:35:09.923Z,73.15
2024-03-02T05:37:37.820Z,73.86
2024-03-02T05:40:07.080Z,72.88
2024-03-02T05:42:35.119Z,73.16
2024-03-02T05:45:03.067Z,73.48
2024-03-02T05:47:31.505Z,73.35
2024-03-02T05:50:00.827Z,72.47
2024-03-02T05:52:28.961Z,73.10
2024-03-02T05:54:56.932Z,73.39
2024-03-02T05:57:39.973Z,73.18
2024-03-02T06:00:09.557Z,73.89
2024-03-02T06:02:41.495Z,73.44
2024-03-02T06:05:11.087Z,73.42
2024-03-02T06:07:38.962Z,73.66
2024-03-02T06:10:10.948Z,73.14
2024-03-02T06:12:40.676Z,73.17
2024-03-02T06:15:09.125Z,73.03
2024-03-02T06:17:37.446Z,73.28
2024-03-02T06:20:06.108Z,72.74
2024-03-02T06:22:35.373Z,73.42
2024-03-02T06:25:03.382Z,72.68
2024-03-02T06:27:31.478Z,72.67
2024-03-02T06:29:59.459Z,72.48
2024-03-02T06:32:27.501Z,72.66
2024-03-02T06:34:55.429Z,73.27
2024-03-02T06:37:23.286Z,73.96
2024-03-02T06:39:53.915Z,74.33
2024-03-02T06:42:21.879Z,75.02
2024-03-02T06:44:49.876Z,76.56
2024-03-02T06:47:18.911Z,76.80
2024-03-02T06:49:48.025Z,76.47
2024-03-02T06:52:15.946Z,77.11
2024-03-02T06:54:44.001Z,77.25
2024-03-02T06:57:17.427Z,78.59
2024-03-02T06:59:45.359Z,78.78
2024-03-02T07:02:13.650Z,80.36
2024-03-02T07:04:41.632Z,80.66
2024-03-02T07:07:09.555Z,81.56
2024-03-02T07:09:37.508Z,81.63
2024-03-02T07:12:05.858Z,80.67
2024-03-02T07:14:52.785Z,80.97
2024-03-02T07:17:20.670Z,80.17
2024-03-02T07:19:48.797Z,79.16
2024-03-02T07:22:16.875Z,79.99
2024-03-02T07:24:46.928Z,79.79
2024-03-02T07:27:18.564Z,80.00
2024-03-02T07:29:47.959Z,82.05
2024-03-02T07:32:16.070Z,82.11
2024-03-02T07:34:44.076Z,82.14
2024-03-02T07:37:12.159Z,82.23
2024-03-02T07:39:40.218Z,82.51
2024-03-02T07:42:08.403Z,82.83
2024-03-02T07:44:40.826Z,82.68
2024-03-02T07:47:11.295Z,83.27
2024-03-02T07:49:39.355Z,83.63
2024-03-02T07:52:07.302Z,83.36
2024-03-02T07:54:35.240Z,84.75
2024-03-02T07:57:03.374Z,84.05
2024-03-02T07:59:31.402Z,83.66
2024-03-02T08:01:59.474Z,83.58
2024-03-02T08:04:28.728Z,83.77
2024-03-02T08:06:56.953Z,84.83
2024-03-02T08:09:25.054Z,85.49
2024-03-02T08:11:53.033Z,85.78
2024-03-02T08:14:20.978Z,85.48
2024-03-02T08:16:48.990Z,85.27
2024-03-02T08:19:17.181Z,85.55
2024-03-02T08:21:46.767Z,86.24
2024-03-02T08:24:14.734Z,86.23
2024-03-02T08:26:43.129Z,86.01
2024-03-02T08:29:11.093Z,85.62
2024-03-02T08:31:41.250Z,85.00
2024-03-02T08:34:10.352Z,84.80
2024-03-02T08:36:39.227Z,85.11
2024-03-02T08:39:16.419Z,85.35
2024-03-02T08:41:46.134Z,85.47
2024-03-02T08:44:14.869Z,84.81
2024-03-02T08:46:43.063Z,85.64
2024-03-02T08:49:11.345Z,85.85
2024-03-02T08:51:39.289Z,86.21
2024-03-02T08:54:08.746Z,86.46
2024-03-02T08:56:37.723Z,88.02
2024-03-02T08:59:06.178Z,87.17
2024-03-02T09:01:35.352Z,87.44
2024-03-02T09:04:03.594Z,86.67
2024-03-02T09:06:31.668Z,87.65
2024-03-02T09:08:59.588Z,86.69
2024-03-02T09:11:29.078Z,86.18
2024-03-02T09:13:57.826Z,86.23
2024-03-02T09:16:31.700Z,86.45
2024-03-02T09:19:01.399Z,87.21
2024-03-02T09:21:31.077Z,87.20
2024-03-02T09:23:59.023Z,86.29
2024-03-02T09:26:28.479Z,86.91
2024-03-02T09:28:56.414Z,87.45
2024-03-02T09:31:24.354Z,86.47
2024-03-02T09:33:52.406Z,86.67
2024-03-02T09:36:21.007Z,86.65
2024-03-02T09:38:49.092Z,85.92
2024-03-02T09:41:17.644Z,85.64
2024-03-02T09:43:47.402Z,85.85
2024-03-02T09:46:15.456Z,85.87
2024-03-02T09:48:43.519Z,85.56
2024-03-02T09:51:12.435Z,86.19
2024-03-02T09:53:40.682Z,86.21
2024-03-02T09:56:08.652Z,86.49
2024-03-02T09:58:36.549Z,87.05
2024-03-02T10:01:08.003Z,86.65
2024-03-02T10:03:36.401Z,86.93
2024-03-02T10:06:24.273Z,86.63
2024-03-02T10:08:52.693Z,85.98
2024-03-02T10:11:32.015Z,86.23
2024-03-02T10:14:10.354Z,86.71
2024-03-02T10:16:40.701Z,85.77
2024-03-02T10:19:19.237Z,85.41
2024-03-02T10:21:47.802Z,85.64
2024-03-02T10:24:15.753Z,85.41
2024-03-02T10:26:44.237Z,85.49
2024-03-02T10:29:12.502Z,85.31
2024-03-02T10:31:43.230Z,85.42
2024-03-02T10:34:12.645Z,85.06
2024-03-02T10:36:43.865Z,85.40
2024-03-02T10:39:12.024Z,85.37
2024-03-02T10:41:41.335Z,85.15
2024-03-02T10:44:11.166Z,84.82
2024-03-02T10:46:41.176Z,84.65
2024-03-02T10:49:09.900Z,84.29
2024-03-02T10:51:39.019Z,84.88
2024-03-02T10:54:07.438Z,84.70
2024-03-02T10:56:40.729Z,84.22
2024-03-02T10:59:16.445Z,84.84
2024-03-02T11:01:49.206Z,84.79
2024-03-02T11:04:20.056Z,84.67
2024-03-02T11:06:51.155Z,84.27
2024-03-02T11:09:23.252Z,84.17
2024-03-02T11:12:03.723Z,84.33
2024-03-02T11:14:34.256Z,84.04
2024-03-02T11:17:06.437Z,84.22
2024-03-02T11:19:36.132Z,83.79
2024-03-02T11:22:05.305Z,84.18
2024-03-02T11:24:38.221Z,83.27
2024-03-02T11:27:08.801Z,83.63
2024-03-02T11:29:46.548Z,83.60
2024-03-02T11:32:22.351Z,83.51
2024-03-02T11:34:51.595Z,83.47
2024-03-02T11:37:21.376Z,84.01
2024-03-02T11:39:51.530Z,84.14
2024-03-02T11:42:19.728Z,84.17
2024-03-02T11:44:49.111Z,84.51
2024-03-02T11:47:19.842Z,83.92
2024-03-02T11:49:51.214Z,83.79
2024-03-02T11:52:20.577Z,84.03
2024-03-02T11:54:50.322Z,84.17
2024-03-02T11:57:20.463Z,84.39
2024-03-02T11:59:48.752Z,84.40
2024-03-02T12:02:18.791Z,84.70
2024-03-02T12:04:49.967Z,84.54
2024-03-02T12:07:21.348Z,84.71
2024-03-02T12:09:49.499Z,84.77
2024-03-02T12:12:19.920Z,84.69
2024-03-02T12:14:53.654Z,84.75
2024-03-02T12:17:21.613Z,84.90
2024-03-02T12:19:51.009Z,84.75
2024-03-02T12:22:19.278Z,85.22
2024-03-02T12:24:47.649Z,85.39
2024-03-02T12:27:17.468Z,85.80
2024-03-02T12:29:45.533Z,85.33
2024-03-02T12:32:13.639Z,85.43
2024-03-02T12:34:41.696Z,86.32
2024-03-02T12:37:14.579Z,86.14
2024-03-02T12:39:42.614Z,86.21
2024-03-02T12:42:11.700Z,86.12
2024-03-02T12:44:39.795Z,85.57
2024-03-02T12:47:08.871Z,85.65
2024-03-02T12:49:37.788Z,85.50
2024-03-02T12:52:06.548Z,86.12
2024-03-02T12:54:36.089Z,85.57
2024-03-02T12:57:04.533Z,85.71
2024-03-02T12:59:32.636Z,85.59
2024-03-02T13:02:00.702Z,85.15
2024-03-02T13:04:30.376Z,85.22
2024-03-02T13:06:59.187Z,86.04
2024-03-02T13:09:27.800Z,85.61
2024-03-02T13:11:58.030Z,84.97
2024-03-02T13:14:27.392Z,85.26
2024-03-02T13:16:55.372Z,85.27
2024-03-02T13:19:23.296Z,84.60
2024-03-02T13:21:52.524Z,85.06
2024-03-02T13:24:21.135Z,84.78
2024-03-02T13:26:49.133Z,84.85
2024-03-02T13:29:19.435Z,83.97
2024-03-02T13:31:47.951Z,83.95
2024-03-02T13:34:16.585Z,83.89
2024-03-02T13:36:44.603Z,84.11
2024-03-02T13:39:16.436Z,83.68
2024-03-02T13:41:52.920Z,83.59
2024-03-02T13:44:22.857Z,83.80
2024-03-02T13:46:50.827Z,83.74
2024-03-02T13:49:18.718Z,83.87
2024-03-02T13:51:46.939Z,83.95
2024-03-02T13:54:14.905Z,84.25
2024-03-02T13:56:43.010Z,84.30
2024-03-02T13:59:11.050Z,83.65
2024-03-02T14:01:40.424Z,84.26
2024-03-02T14:04:08.469Z,84.26
2024-03-02T14:06:36.534Z,84.49
2024-03-02T14:09:04.517Z,83.94
2024-03-02T14:11:32.509Z,83.93
2024-03-02T14:14:00.620Z,84.41
2024-03-02T14:16:28.536Z,84.49
2024-03-02T14:18:59.050Z,84.76
2024-03-02T14:21:27.344Z,85.12
2024-03-02T14:23:55.986Z,85.04
2024-03-02T14:26:24.099Z,85.20
2024-03-02T14:28:53.965Z,85.05
2024-03-02T14:31:23.217Z,85.10
2024-03-02T14:33:51.259Z,84.86
2024-03-02T14:36:20.849Z,84.92
2024-03-02T14:38:49.192Z,85.61
2024-03-02T14:41:17.126Z,85.79
2024-03-02T14:43:45.035Z,85.75
2024-03-02T14:46:14.038Z,85.74
2024-03-02T14:48:42.110Z,86.06
2024-03-02T14:51:11.671Z,86.29
2024-03-02T14:53:41.084Z,86.21
2024-03-02T14:56:09.088Z,85.87
2024-03-02T14:58:37.970Z,85.99
2024-03-02T15:01:07.385Z,85.63
2024-03-02T15:03:35.641Z,85.63
2024-03-02T15:06:05.318Z,86.00
2024-03-02T15:08:33.726Z,85.18
2024-03-02T15:11:05.119Z,85.63
2024-03-02T15:13:33.651Z,85.39
2024-03-02T15:16:01.634Z,85.81
2024-03-02T15:18:29.676Z,85.66
2024-03-02T15:20:57.706Z,85.33
2024-03-02T15:23:26.031Z,85.53
2024-03-02T15:25:54.009Z,85.23
2024-03-02T15:28:23.294Z,86.03
2024-03-02T15:30:53.283Z,85.83
2024-03-02T15:33:22.282Z,85.91
2024-03-02T15:35:50.218Z,85.55
2024-03-02T15:38:25.080Z,85.66
2024-03-02T15:41:00.730Z,85.25
2024-03-02T15:43:30.644Z,85.35
2024-03-02T15:45:59.139Z,85.43
2024-03-02T15:48:27.308Z,85.57
2024-03-02T15:50:56.583Z,85.38
2024-03-02T15:53:24.710Z,85.97
2024-03-02T15:55:53.085Z,85.81
2024-03-02T15:58:21.100Z,86.13
2024-03-02T16:00:50.506Z,85.83
2024-03-02T16:03:19.024Z,85.20
2024-03-02T16:05:46.927Z,85.27
2024-03-02T16:08:14.984Z,85.04
2024-03-02T16:10:42.876Z,85.57
2024-03-02T16:13:10.912Z,84.51
2024-03-02T16:15:39.112Z,84.50
2024-03-02T16:18:08.929Z,84.57
2024-03-02T16:20:37.014Z,84.19
2024-03-02T16:23:05.305Z,84.05
2024-03-02T16:25:33.157Z,84.14
2024-03-02T16:28:02.543Z,84.40
2024-03-02T16:30:30.748Z,83.68
2024-03-02T16:32:59.600Z,84.07
2024-03-02T16:35:28.841Z,84.08
2024-03-02T16:37:56.792Z,84.10
2024-03-02T16:40:24.830Z,84.12
2024-03-02T16:42:53.218Z,83.50
2024-03-02T16:45:21.169Z,83.54
2024-03-02T16:47:49.188Z,83.57
2024-03-02T16:50:17.793Z,83.72
2024-03-02T16:52:47.068Z,83.71
2024-03-02T16:55:15.819Z,83.13
2024-03-02T16:57:43.901Z,82.92
2024-03-02T17:00:13.113Z,83.83
2024-03-02T17:02:41.044Z,83.51
2024-03-02T17:05:09.812Z,83.06
2024-03-02T17:07:37.703Z,82.82
2024-03-02T17:10:08.264Z,83.05
2024-03-02T17:12:36.273Z,83.22
2024-03-02T17:15:05.516Z,83.46
2024-03-02T17:17:33.957Z,83.02
2024-03-02T17:20:02.618Z,83.40
2024-03-02T17:22:32.315Z,82.71
2024-03-02T17:25:00.284Z,82.76
2024-03-02T17:27:31.752Z,82.57
2024-03-02T17:29:59.920Z,82.01
2024-03-02T17:32:29.261Z,81.66
2024-03-02T17:34:57.445Z,82.00
2024-03-02T17:37:25.356Z,81.96
2024-03-02T17:39:54.389Z,82.73
2024-03-02T17:42:22.434Z,82.60
2024-03-02T17:44:54.768Z,82.17
2024-03-02T17:47:22.716Z,82.62
2024-03-02T17:49:50.699Z,82.84
2024-03-02T17:52:18.735Z,82.76
2024-03-02T17:54:46.804Z,81.77
2024-03-02T17:57:16.555Z,82.25
2024-03-02T17:59:44.848Z,82.23
2024-03-02T18:02:14.620Z,82.16
2024-03-02T18:04:43.148Z,81.95
2024-03-02T18:07:11.296Z,82.70
2024-03-02T18:09:39.398Z,82.33
2024-03-02T18:12:09.482Z,81.72
2024-03-02T18:14:40.409Z,80.94
2024-03-02T18:17:08.751Z,81.69
2024-03-02T18:19:38.133Z,80.95
2024-03-02T18:22:06.221Z,81.20
2024-03-02T18:24:37.545Z,81.31
2024-03-02T18:27:06.242Z,81.77
2024-03-02T18:29:34.096Z,81.19
2024-03-02T18:32:03.352Z,81.79
2024-03-02T18:34:31.477Z,81.48
2024-03-02T18:37:00.831Z,80.86
2024-03-02T18:39:28.786Z,81.34
2024-03-02T18:41:56.684Z,81.98
2024-03-02T18:44:25.487Z,81.82
2024-03-02T18:46:53.495Z,81.77
2024-03-02T18:49:21.787Z,81.83
2024-03-02T18:51:49.775Z,81.93
2024-03-02T18:54:19.354Z,81.92
2024-03-02T18:56:47.330Z,81.27
2024-03-02T18:59:15.301Z,81.46
2024-03-02T19:01:43.390Z,81.32
2024-03-02T19:04:11.397Z,82.11
2024-03-02T19:06:39.391Z,81.93
2024-03-02T19:09:07.292Z,81.58
2024-03-02T19:11:36.662Z,81.34
2024-03-02T19:14:04.594Z,81.46
2024-03-02T19:16:32.534Z,80.90
2024-03-02T19:19:00.456Z,81.17
2024-03-02T19:21:28.690Z,81.88
2024-03-02T19:23:56.655Z,81.16
2024-03-02T19:26:26.148Z,80.95
2024-03-02T19:28:55.497Z,81.11
2024-03-02T19:31:23.508Z,81.21
2024-03-02T19:33:51.436Z,80.76
2024-03-02T19:36:19.328Z,81.25
2024-03-02T19:38:47.272Z,80.73
2024-03-02T19:41:15.985Z,80.83
2024-03-02T19:43:43.931Z,80.65
2024-03-02T19:46:13.807Z,81.06
2024-03-02T19:48:41.885Z,81.08
2024-03-02T19:51:11.309Z,81.07
2024-03-02T19:53:42.606Z,80.59
2024-03-02T19:56:10.839Z,80.50
2024-03-02T19:58:38.702Z,80.55
2024-03-02T20:01:06.773Z,79.85
2024-03-02T20:03:36.174Z,80.08
2024-03-02T20:06:04.158Z,80.40
2024-03-02T20:08:32.707Z,80.32
2024-03-02T20:11:00.698Z,80.57
2024-03-02T20:13:28.630Z,80.29
2024-03-02T20:15:57.759Z,80.19
2024-03-02T20:18:25.765Z,80.41
2024-03-02T20:20:55.060Z,80.22
2024-03-02T20:23:23.158Z,80.19
2024-03-02T20:25:51.063Z,79.65
2024-03-02T20:28:19.220Z,80.22
2024-03-02T20:30:47.310Z,79.92
2024-03-02T20:33:15.543Z,79.79
2024-03-02T20:35:43.511Z,79.55
2024-03-02T20:38:12.853Z,80.08
2024-03-02T20:40:43.264Z,79.81
2024-03-02T20:43:12.158Z,79.94
2024-03-02T20:45:40.433Z,79.89
2024-03-02T20:48:09.349Z,79.42
2024-03-02T20:50:37.271Z,79.41
2024-03-02T20:53:08.060Z,79.71
2024-03-02T20:55:38.906Z,79.56
2024-03-02T20:58:08.110Z,80.03
2024-03-02T21:00:36.423Z,79.38
2024-03-02T21:03:04.465Z,79.69
2024-03-02T21:05:32.687Z,79.67
2024-03-02T21:08:02.124Z,79.59
2024-03-02T21:10:30.122Z,79.68
2024-03-02T21:13:00.929Z,79.91
2024-03-02T21:15:29.011Z,80.00
2024-03-02T21:17:57.075Z,79.14
2024-03-02T21:20:25.087Z,80.04
2024-03-02T21:22:53.049Z,79.41
2024-03-02T21:25:22.571Z,79.92
2024-03-02T21:27:50.675Z,79.37
2024-03-02T21:30:20.188Z,78.83
2024-03-02T21:32:49.669Z,79.24
2024-03-02T21:35:17.768Z,78.87
2024-03-02T21:37:45.687Z,78.94
2024-03-02T21:40:15.927Z,79.05
2024-03-02T21:42:43.895Z,78.76
2024-03-02T21:45:11.845Z,78.57
2024-03-02T21:47:41.202Z,78.04
2024-03-02T21:50:10.570Z,78.81
2024-03-02T21:52:38.482Z,78.57
2024-03-02T21:55:07.419Z,78.46
2024-03-02T21:57:35.572Z,78.71
2024-03-02T22:00:04.025Z,78.59
2024-03-02T22:02:42.097Z,78.86
2024-03-02T22:05:10.438Z,78.41
2024-03-02T22:07:38.511Z,79.16
2024-03-02T22:10:07.553Z,78.27
2024-03-02T22:12:35.581Z,78.58
2024-03-02T22:15:04.154Z,78.11
2024-03-02T22:17:32.353Z,78.86
2024-03-02T22:20:02.686Z,78.28
2024-03-02T22:22:30.826Z,78.60
2024-03-02T22:24:59.329Z,78.50
2024-03-02T22:27:27.716Z,78.51
2024-03-02T22:29:55.573Z,78.17
2024-03-02T22:32:23.496Z,79.16
2024-03-02T22:34:51.400Z,78.89
2024-03-02T22:37:20.736Z,78.94
2024-03-02T22:39:48.709Z,79.25
2024-03-02T22:42:16.637Z,78.90
2024-03-02T22:44:44.479Z,78.97
2024-03-02T22:47:12.995Z,78.73
2024-03-02T22:49:41.338Z,78.84
2024-03-02T22:52:09.383Z,79.93
2024-03-02T22:54:38.687Z,79.51
2024-03-02T22:57:07.113Z,79.67
2024-03-02T22:59:35.726Z,79.82
2024-03-02T23:02:03.807Z,78.81
2024-03-02T23:04:31.834Z,78.61
2024-03-02T23:06:59.745Z,79.18
2024-03-02T23:09:29.293Z,79.22
2024-03-02T23:11:58.513Z,79.47
2024-03-02T23:14:26.402Z,80.05
2024-03-02T23:16:54.281Z,79.96
2024-03-02T23:19:23.385Z,80.15
2024-03-02T23:21:51.867Z,79.68
2024-03-02T23:24:20.385Z,80.02
2024-03-02T23:26:48.392Z,80.39
2024-03-02T23:29:20.009Z,80.03
2024-03-02T23:31:48.013Z,79.29
2024-03-02T23:34:15.924Z,80.46
2024-03-02T23:36:43.938Z,80.23
2024-03-02T23:39:12.299Z,80.18
2024-03-02T23:41:39.251Z,80.24
2024-03-02T23:44:08.789Z,80.01
2024-03-02T23:46:38.230Z,80.65
2024-03-02T23:49:06.133Z,79.67
2024-03-02T23:51:34.122Z,80.17
2024-03-02T23:54:02.072Z,79.98
2024-03-02T23:56:31.822Z,79.77
2024-03-02T23:59:01.185Z,79.71
